createdAt,value
2022-07-25T00:01:44.830Z,13.43
2022-07-25T00:04:14.414Z,11.27
2022-07-25T00:06:42.587Z,20.73
2022-07-25T00:09:09.923Z,11.98
2022-07-25T00:11:36.891Z,10.38
2022-07-25T00:14:04.586Z,13.80
2022-07-25T00:16:32.158Z,19.80
2022-07-25T00:18:58.979Z,14.02
2022-07-25T00:21:25.899Z,14.55
2022-07-25T00:23:52.617Z,10.65
2022-07-25T00:26:19.497Z,14.93
2022-07-25T00:28:46.214Z,14.07
2022-07-25T00:31:12.940Z,9.05
2022-07-25T00:33:40.360Z,14.40
2022-07-25T00:36:10.337Z,13.30
2022-07-25T00:38:37.052Z,11.48
2022-07-25T00:41:04.523Z,12.80
2022-07-25T00:43:31.583Z,13.68
2022-07-25T00:45:59.408Z,11.50
2022-07-25T00:48:28.512Z,11.18
2022-07-25T00:50:56.219Z,12.02
2022-07-25T00:53:23.087Z,13.20
2022-07-25T00:55:49.765Z,11.02
2022-07-25T00:58:16.624Z,10.48
2022-07-25T01:00:43.329Z,13.10
2022-07-25T01:03:10.345Z,10.35
2022-07-25T01:05:37.057Z,14.40
2022-07-25T01:08:04.165Z,13.45
2022-07-25T01:10:34.374Z,9.90
2022-07-25T01:13:01.218Z,14.82
2022-07-25T01:15:28.292Z,12.52
2022-07-25T01:17:55.304Z,12.15
2022-07-25T01:20:24.037Z,12.40
2022-07-25T01:22:51.292Z,10.68
2022-07-25T01:25:19.392Z,13.55
2022-07-25T01:27:49.989Z,14.50
2022-07-25T01:30:22.581Z,12.85
2022-07-25T01:32:49.301Z,12.65
2022-07-25T01:35:16.025Z,12.60
2022-07-25T01:37:45.392Z,10.55
2022-07-25T01:40:13.678Z,11.18
2022-07-25T01:42:40.706Z,14.10
2022-07-25T01:45:08.046Z,12.23
2022-07-25T01:47:34.951Z,15.52
2022-07-25T01:50:01.719Z,10.60
2022-07-25T01:52:28.424Z,13.30
2022-07-25T01:54:55.243Z,12.18
2022-07-25T01:57:23.301Z,11.02
2022-07-25T01:59:56.823Z,9.80
2022-07-25T02:02:23.604Z,14.65
2022-07-25T02:04:50.394Z,11.95
2022-07-25T02:07:17.131Z,10.95
2022-07-25T02:09:43.832Z,11.00
2022-07-25T02:12:10.494Z,11.38
2022-07-25T02:14:37.360Z,14.13
2022-07-25T02:17:04.136Z,11.70
2022-07-25T02:19:30.827Z,11.90
2022-07-25T02:21:57.540Z,12.50
2022-07-25T02:24:24.242Z,12.20
2022-07-25T02:26:51.118Z,11.60
2022-07-25T02:29:17.879Z,14.70
2022-07-25T02:31:48.652Z,11.75
2022-07-25T02:34:15.337Z,13.88
2022-07-25T02:36:42.040Z,11.40
2022-07-25T02:39:08.723Z,15.65
2022-07-25T02:41:35.395Z,12.55
2022-07-25T02:44:02.039Z,11.40
2022-07-25T02:46:28.971Z,14.73
2022-07-25T02:48:55.911Z,27.70
2022-07-25T02:51:22.773Z,15.00
2022-07-25T02:53:59.270Z,11.15
2022-07-25T02:56:30.105Z,14.48
2022-07-25T02:58:57.397Z,19.38
2022-07-25T03:01:24.178Z,11.48
2022-07-25T03:03:51.054Z,11.40
2022-07-25T03:06:18.208Z,11.05
2022-07-25T03:08:44.891Z,13.57
2022-07-25T03:11:13.046Z,12.10
2022-07-25T03:13:39.743Z,13.88
2022-07-25T03:20:01.429Z,12.15
2022-07-25T03:22:28.050Z,12.10
2022-07-25T03:24:54.624Z,12.80
2022-07-25T03:27:21.231Z,13.95
2022-07-25T03:29:48.117Z,13.77
2022-07-25T03:32:14.815Z,15.90
2022-07-25T03:34:41.512Z,14.65
2022-07-25T03:37:08.112Z,16.90
2022-07-25T03:39:34.748Z,15.98
2022-07-25T03:42:01.389Z,17.15
2022-07-25T03:44:28.093Z,15.50
2022-07-25T03:46:54.776Z,18.02
2022-07-25T03:49:21.380Z,12.68
2022-07-25T03:51:48.057Z,12.55
2022-07-25T03:54:15.181Z,13.85
2022-07-25T03:56:44.296Z,17.05
2022-07-25T03:59:13.277Z,13.95
2022-07-25T04:01:40.782Z,18.92
2022-07-25T04:04:08.597Z,13.25
2022-07-25T04:06:36.001Z,15.45
2022-07-25T04:09:02.849Z,16.40
2022-07-25T04:11:30.881Z,14.95
2022-07-25T04:13:57.905Z,13.80
2022-07-25T04:16:24.790Z,14.93
2022-07-25T04:18:55.380Z,13.27
2022-07-25T04:21:23.602Z,12.90
2022-07-25T04:23:50.283Z,14.80
2022-07-25T04:26:17.688Z,12.40
2022-07-25T04:28:44.332Z,13.70
2022-07-25T04:31:10.957Z,15.90
2022-07-25T04:33:38.538Z,10.70
2022-07-25T04:36:05.554Z,14.18
2022-07-25T04:38:32.412Z,13.13
2022-07-25T04:40:59.125Z,17.60
2022-07-25T04:43:25.816Z,13.32
2022-07-25T04:45:52.675Z,17.17
2022-07-25T04:48:19.445Z,13.38
2022-07-25T04:50:46.087Z,16.33
2022-07-25T04:53:12.704Z,13.88
2022-07-25T04:55:39.338Z,16.95
2022-07-25T04:58:06.634Z,12.85
2022-07-25T05:00:33.625Z,15.00
2022-07-25T05:03:02.776Z,10.70
2022-07-25T05:05:29.420Z,11.88
2022-07-25T05:07:57.575Z,15.55
2022-07-25T05:10:25.684Z,10.55
2022-07-25T05:12:52.407Z,11.75
2022-07-25T05:15:19.152Z,11.68
2022-07-25T05:17:45.985Z,10.77
2022-07-25T05:20:13.868Z,10.40
2022-07-25T05:22:40.609Z,9.85
2022-07-25T05:25:08.492Z,13.85
2022-07-25T05:27:35.187Z,10.70
2022-07-25T05:30:01.808Z,9.63
2022-07-25T05:32:28.510Z,10.02
2022-07-25T05:34:55.201Z,10.38
2022-07-25T05:37:21.959Z,8.82
2022-07-25T05:39:48.558Z,10.75
2022-07-25T05:42:15.261Z,9.63
2022-07-25T05:44:41.930Z,11.55
2022-07-25T05:47:11.991Z,11.77
2022-07-25T05:49:38.965Z,10.48
2022-07-25T05:52:10.982Z,11.50
2022-07-25T05:54:39.911Z,9.73
2022-07-25T05:57:06.580Z,8.95
2022-07-25T05:59:33.225Z,11.70
2022-07-25T06:02:02.167Z,13.88
2022-07-25T06:04:28.910Z,11.98
2022-07-25T06:06:55.649Z,9.00
2022-07-25T06:09:22.612Z,10.60
2022-07-25T06:11:59.844Z,9.73
2022-07-25T06:14:28.935Z,11.95
2022-07-25T06:16:56.560Z,8.15
2022-07-25T06:19:23.524Z,9.45
2022-07-25T06:21:50.317Z,8.85
2022-07-25T06:24:17.103Z,13.05
2022-07-25T06:26:43.754Z,10.27
2022-07-25T06:29:10.460Z,11.30
2022-07-25T06:31:37.230Z,9.82
2022-07-25T06:34:04.493Z,10.70
2022-07-25T06:36:32.681Z,8.32
2022-07-25T06:39:00.336Z,10.43
2022-07-25T06:41:27.214Z,8.13
2022-07-25T06:43:53.993Z,9.52
2022-07-25T06:46:20.743Z,9.60
2022-07-25T06:48:47.508Z,10.07
2022-07-25T06:51:14.195Z,15.02
2022-07-25T06:53:41.050Z,7.90
2022-07-25T06:56:07.866Z,12.27
2022-07-25T06:58:34.633Z,11.55
2022-07-25T07:01:01.656Z,8.85
2022-07-25T07:03:28.506Z,8.63
2022-07-25T07:05:55.833Z,7.75
2022-07-25T07:08:22.562Z,12.02
2022-07-25T07:10:49.311Z,11.13
2022-07-25T07:13:23.696Z,8.05
2022-07-25T07:15:53.347Z,11.18
2022-07-25T07:18:20.727Z,8.35
2022-07-25T07:20:48.052Z,9.70
2022-07-25T07:23:16.852Z,6.57
2022-07-25T07:25:46.829Z,7.05
2022-07-25T07:28:13.841Z,9.07
2022-07-25T07:33:27.371Z,11.15
2022-07-25T07:35:57.069Z,7.78
2022-07-25T07:38:27.095Z,5.90
2022-07-25T07:40:54.024Z,7.80
2022-07-25T07:43:21.714Z,11.50
2022-07-25T07:45:51.455Z,9.82
2022-07-25T07:48:19.031Z,6.80
2022-07-25T07:50:45.757Z,6.88
2022-07-25T07:53:12.529Z,10.75
2022-07-25T07:55:45.392Z,13.20
2022-07-25T07:58:15.784Z,8.15
2022-07-25T08:00:44.254Z,6.63
2022-07-25T08:03:11.025Z,8.73
2022-07-25T08:05:40.656Z,11.30
2022-07-25T08:08:09.947Z,7.18
2022-07-25T08:10:39.104Z,6.63
2022-07-25T08:13:38.146Z,7.32
2022-07-25T08:16:05.537Z,9.50
2022-07-25T08:18:33.526Z,8.75
2022-07-25T08:21:03.403Z,7.00
2022-07-25T08:23:31.894Z,8.20
2022-07-25T08:26:00.506Z,6.00
2022-07-25T08:28:27.321Z,9.20
2022-07-25T08:30:54.357Z,7.45
2022-07-25T08:33:21.212Z,6.65
2022-07-25T08:35:51.981Z,9.85
2022-07-25T08:38:19.596Z,7.05
2022-07-25T08:40:46.745Z,9.95
2022-07-25T08:43:20.689Z,6.85
2022-07-25T08:45:49.343Z,11.32
2022-07-25T08:48:24.499Z,11.63
2022-07-25T08:50:52.535Z,6.13
2022-07-25T08:53:36.072Z,8.52
2022-07-25T08:56:13.776Z,8.50
2022-07-25T08:58:44.111Z,7.63
2022-07-25T09:01:12.339Z,6.25
2022-07-25T09:03:40.274Z,7.30
2022-07-25T09:06:17.980Z,7.20
2022-07-25T09:08:58.316Z,5.60
2022-07-25T09:11:34.098Z,8.73
2022-07-25T09:14:10.587Z,13.95
2022-07-25T09:16:40.921Z,9.38
2022-07-25T09:19:23.236Z,6.97
2022-07-25T09:22:10.199Z,6.55
2022-07-25T09:24:37.333Z,5.88
2022-07-25T09:27:12.500Z,5.97
2022-07-25T09:29:40.516Z,6.80
2022-07-25T09:32:19.174Z,6.75
2022-07-25T09:34:47.800Z,7.82
2022-07-25T09:37:19.776Z,9.65
2022-07-25T09:39:48.830Z,5.30
2022-07-25T09:42:19.670Z,8.27
2022-07-25T09:44:57.885Z,7.03
2022-07-25T09:47:25.073Z,8.20
2022-07-25T09:49:52.359Z,7.22
2022-07-25T09:52:19.455Z,10.77
2022-07-25T09:54:46.260Z,7.43
2022-07-25T09:57:13.173Z,7.30
2022-07-25T09:59:40.008Z,8.50
2022-07-25T10:02:25.027Z,5.72
2022-07-25T10:05:04.764Z,8.57
2022-07-25T10:07:31.846Z,7.50
2022-07-25T10:12:40.343Z,8.20
2022-07-25T10:15:13.168Z,12.07
2022-07-25T10:17:41.805Z,6.85
2022-07-25T10:20:12.709Z,9.55
2022-07-25T10:22:56.222Z,6.90
2022-07-25T10:25:24.097Z,9.88
2022-07-25T10:30:40.831Z,7.60
2022-07-25T10:33:16.054Z,8.40
2022-07-25T10:35:43.439Z,7.35
2022-07-25T10:38:10.602Z,6.35
2022-07-25T10:40:38.561Z,10.75
2022-07-25T10:43:12.163Z,9.10
2022-07-25T10:45:44.767Z,9.02
2022-07-25T10:48:19.958Z,8.40
2022-07-25T10:50:56.776Z,9.77
2022-07-25T10:53:38.527Z,10.80
2022-07-25T10:56:20.405Z,8.70
2022-07-25T11:02:16.439Z,5.72
2022-07-25T11:05:03.485Z,6.40
2022-07-25T11:07:36.116Z,6.07
2022-07-25T11:10:07.135Z,6.80
2022-07-25T11:12:33.967Z,5.97
2022-07-25T11:15:12.327Z,7.07
2022-07-25T11:17:53.467Z,6.28
2022-07-25T11:20:20.902Z,11.10
2022-07-25T11:25:36.519Z,9.77
2022-07-25T11:28:04.023Z,8.15
2022-07-25T11:30:31.247Z,10.02
2022-07-25T11:33:01.669Z,8.02
2022-07-25T11:35:33.306Z,8.18
2022-07-25T11:38:02.235Z,8.85
2022-07-25T11:40:30.476Z,7.75
2022-07-25T11:42:59.795Z,7.88
2022-07-25T11:45:30.601Z,6.63
2022-07-25T11:48:08.081Z,6.80
2022-07-25T11:50:40.920Z,7.82
2022-07-25T11:53:09.763Z,7.28
2022-07-25T11:55:40.778Z,7.93
2022-07-25T11:58:08.781Z,8.45
2022-07-25T12:00:46.726Z,7.50
2022-07-25T12:03:20.437Z,8.38
2022-07-25T12:05:48.585Z,11.27
2022-07-25T12:08:17.834Z,10.15
2022-07-25T12:10:48.294Z,6.72
2022-07-25T12:13:29.298Z,6.32
2022-07-25T12:15:57.036Z,8.40
2022-07-25T12:18:25.584Z,5.50
2022-07-25T12:20:53.343Z,6.82
2022-07-25T12:23:21.813Z,8.40
2022-07-25T12:25:49.262Z,6.90
2022-07-25T12:28:16.058Z,6.15
2022-07-25T12:30:44.217Z,5.85
2022-07-25T12:33:11.976Z,10.50
2022-07-25T12:35:40.873Z,6.65
2022-07-25T12:38:07.637Z,5.88
2022-07-25T12:40:34.620Z,7.40
2022-07-25T12:43:04.020Z,6.10
2022-07-25T12:48:17.728Z,5.00
2022-07-25T12:50:44.872Z,8.75
2022-07-25T12:53:13.361Z,4.70
2022-07-25T12:55:52.121Z,8.43
2022-07-25T12:58:18.976Z,5.20
2022-07-25T13:00:46.936Z,8.20
2022-07-25T13:03:15.372Z,6.90
2022-07-25T13:05:42.147Z,7.90
2022-07-25T13:08:09.248Z,5.78
2022-07-25T13:10:39.830Z,10.13
2022-07-25T13:13:06.709Z,6.15
2022-07-25T13:15:40.849Z,6.43
2022-07-25T13:18:07.856Z,7.55
2022-07-25T13:20:37.542Z,6.70
2022-07-25T13:23:05.907Z,5.50
2022-07-25T13:25:33.880Z,6.82
2022-07-25T13:28:03.062Z,5.75
2022-07-25T13:30:31.364Z,7.93
2022-07-25T13:32:58.227Z,4.78
2022-07-25T13:35:32.656Z,8.82
2022-07-25T13:38:02.062Z,5.45
2022-07-25T13:40:29.003Z,5.43
2022-07-25T13:42:56.640Z,7.43
2022-07-25T13:45:37.425Z,4.53
2022-07-25T13:48:28.492Z,12.20
2022-07-25T13:51:00.610Z,11.95
2022-07-25T13:53:30.686Z,4.22
2022-07-25T13:55:59.185Z,8.70
2022-07-25T13:58:26.487Z,10.93
2022-07-25T14:00:53.454Z,4.63
2022-07-25T14:03:29.193Z,5.05
2022-07-25T14:05:56.424Z,4.10
2022-07-25T14:11:30.240Z,4.85
2022-07-25T14:13:58.059Z,9.73
2022-07-25T14:16:27.627Z,8.15
2022-07-25T14:18:55.720Z,3.75
2022-07-25T14:21:26.206Z,8.52
2022-07-25T14:23:53.704Z,14.23
2022-07-25T14:26:20.841Z,6.97
2022-07-25T14:28:47.690Z,10.15
2022-07-25T14:35:41.237Z,7.00
2022-07-25T14:38:08.474Z,7.95
2022-07-25T14:40:37.631Z,4.78
2022-07-25T14:46:18.637Z,7.18
2022-07-25T14:48:45.471Z,13.43
2022-07-25T14:51:16.641Z,8.07
2022-07-25T14:53:43.595Z,6.75
2022-07-25T14:56:10.422Z,10.18
2022-07-25T14:58:40.622Z,6.65
2022-07-25T15:01:09.855Z,7.00
2022-07-25T15:03:37.181Z,5.28
2022-07-25T15:08:51.730Z,4.43
2022-07-25T15:11:20.223Z,3.65
2022-07-25T15:13:49.380Z,4.68
2022-07-25T15:16:17.034Z,3.03
2022-07-25T15:19:13.469Z,4.53
2022-07-25T15:21:33.953Z,6.00
2022-07-25T15:24:09.827Z,7.53
2022-07-25T15:26:37.133Z,3.00
2022-07-25T15:29:08.275Z,3.90
2022-07-25T15:31:37.969Z,6.22
2022-07-25T15:34:04.846Z,3.22
2022-07-25T15:36:31.647Z,4.50
2022-07-25T15:41:40.220Z,4.90
2022-07-25T15:44:07.441Z,7.28
2022-07-25T15:46:34.390Z,5.38
2022-07-25T15:49:01.534Z,5.50
2022-07-25T15:51:28.769Z,6.18
2022-07-25T15:54:08.856Z,7.93
2022-07-25T15:56:35.949Z,6.85
2022-07-25T15:59:05.581Z,5.28
2022-07-25T16:01:32.617Z,5.03
2022-07-25T16:04:00.967Z,5.90
2022-07-25T16:06:28.425Z,7.32
2022-07-25T16:08:58.341Z,6.88
2022-07-25T16:11:25.639Z,4.85
2022-07-25T16:13:52.899Z,8.10
2022-07-25T16:16:22.196Z,6.57
2022-07-25T16:18:49.546Z,8.93
2022-07-25T16:21:16.259Z,9.15
2022-07-25T16:23:45.566Z,7.65
2022-07-25T16:26:13.877Z,5.00
2022-07-25T16:28:41.048Z,9.50
2022-07-25T16:31:07.784Z,5.05
2022-07-25T16:33:34.739Z,5.53
2022-07-25T16:36:01.592Z,9.05
2022-07-25T16:38:28.940Z,5.88
2022-07-25T16:40:58.260Z,11.05
2022-07-25T16:43:25.131Z,3.70
2022-07-25T16:45:52.532Z,4.97
2022-07-25T16:48:19.285Z,5.63
2022-07-25T16:50:47.754Z,4.78
2022-07-25T16:53:14.571Z,4.90
2022-07-25T16:55:44.383Z,7.47
2022-07-25T16:58:14.107Z,3.72
2022-07-25T17:00:41.691Z,5.05
2022-07-25T17:03:08.373Z,3.55
2022-07-25T17:05:35.555Z,3.05
2022-07-25T17:08:02.581Z,3.10
2022-07-25T17:10:30.211Z,1.58
2022-07-25T17:12:58.400Z,3.97
2022-07-25T17:15:25.220Z,6.32
2022-07-25T17:17:52.015Z,7.75
2022-07-25T17:20:20.152Z,5.13
2022-07-25T17:22:46.938Z,4.25
2022-07-25T17:25:13.770Z,8.52
2022-07-25T17:27:41.614Z,3.30
2022-07-25T17:30:08.735Z,4.75
2022-07-25T17:32:46.143Z,6.50
2022-07-25T17:35:12.834Z,4.10
2022-07-25T17:37:40.743Z,5.70
2022-07-25T17:40:08.674Z,4.68
2022-07-25T17:42:35.503Z,6.07
2022-07-25T17:45:05.907Z,3.05
2022-07-25T17:47:42.764Z,2.40
2022-07-25T17:50:10.238Z,8.70
2022-07-25T17:52:37.132Z,3.85
2022-07-25T17:55:04.429Z,4.45
2022-07-25T17:57:31.237Z,6.40
2022-07-25T17:59:58.021Z,5.05
2022-07-25T18:02:24.734Z,2.67
2022-07-25T18:04:52.381Z,3.40
2022-07-25T18:07:19.521Z,4.60
2022-07-25T18:09:46.202Z,2.00
2022-07-25T18:12:12.978Z,3.72
2022-07-25T18:14:39.683Z,5.25
2022-07-25T18:17:06.415Z,3.45
2022-07-25T18:19:33.201Z,4.80
2022-07-25T18:22:02.236Z,4.40
2022-07-25T18:24:30.454Z,5.28
2022-07-25T18:26:58.870Z,3.83
2022-07-25T18:32:07.594Z,4.13
2022-07-25T18:34:34.414Z,2.38
2022-07-25T18:37:04.898Z,8.88
2022-07-25T18:39:31.657Z,4.43
2022-07-25T18:41:58.455Z,4.32
2022-07-25T18:44:25.631Z,3.95
2022-07-25T18:46:52.537Z,7.50
2022-07-25T18:49:19.353Z,9.50
2022-07-25T18:51:46.143Z,4.53
2022-07-25T18:54:12.841Z,8.25
2022-07-25T18:56:39.637Z,8.88
2022-07-25T18:59:06.770Z,5.88
2022-07-25T19:01:34.881Z,5.32
2022-07-25T19:04:01.665Z,4.97
2022-07-25T19:06:40.123Z,4.78
2022-07-25T19:09:09.266Z,2.85
2022-07-25T19:11:41.802Z,5.45
2022-07-25T19:14:09.405Z,6.97
2022-07-25T19:16:36.485Z,8.73
2022-07-25T19:19:03.631Z,5.35
2022-07-25T19:21:30.511Z,5.28
2022-07-25T19:23:57.339Z,1.92
2022-07-25T19:26:24.165Z,6.03
2022-07-25T19:28:51.204Z,5.10
2022-07-25T19:31:18.121Z,3.67
2022-07-25T19:33:46.130Z,8.52
2022-07-25T19:36:13.844Z,3.50
2022-07-25T19:38:40.592Z,6.72
2022-07-25T19:43:48.948Z,6.53
2022-07-25T19:46:15.818Z,6.47
2022-07-25T19:48:42.722Z,3.53
2022-07-25T19:51:10.079Z,2.85
2022-07-25T19:53:37.638Z,6.82
2022-07-25T19:56:05.438Z,5.35
2022-07-25T19:58:35.430Z,5.85
2022-07-25T20:01:05.334Z,8.23
2022-07-25T20:03:32.420Z,5.10
2022-07-25T20:05:59.112Z,10.02
2022-07-25T20:08:25.813Z,4.20
2022-07-25T20:10:52.659Z,6.38
2022-07-25T20:13:22.698Z,3.92
2022-07-25T20:15:49.427Z,5.45
2022-07-25T20:18:19.566Z,5.28
2022-07-25T20:20:47.471Z,6.20
2022-07-25T20:23:14.627Z,7.15
2022-07-25T20:25:41.336Z,8.43
2022-07-25T20:28:08.051Z,6.13
2022-07-25T20:30:35.377Z,3.22
2022-07-25T20:33:05.421Z,8.02
2022-07-25T20:35:36.269Z,6.60
2022-07-25T20:38:07.210Z,6.43
2022-07-25T20:40:42.736Z,5.95
2022-07-25T20:43:15.357Z,2.22
2022-07-25T20:45:42.314Z,6.55
2022-07-25T20:48:09.374Z,3.97
2022-07-25T20:50:37.407Z,5.97
2022-07-25T20:53:09.914Z,5.28
2022-07-25T20:55:36.646Z,2.97
2022-07-25T20:58:04.319Z,6.20
2022-07-25T21:00:31.611Z,5.40
2022-07-25T21:02:59.224Z,2.35
2022-07-25T21:05:26.609Z,5.00
2022-07-25T21:07:53.795Z,5.90
2022-07-25T21:10:20.698Z,1.85
2022-07-25T21:12:47.676Z,2.75
2022-07-25T21:15:14.706Z,2.80
2022-07-25T21:17:41.820Z,3.65
2022-07-25T21:20:13.502Z,4.43
2022-07-25T21:22:40.417Z,3.63
2022-07-25T21:25:07.709Z,2.97
2022-07-25T21:27:34.836Z,2.40
2022-07-25T21:30:01.706Z,3.80
2022-07-25T21:32:29.794Z,5.35
2022-07-25T21:34:56.544Z,4.55
2022-07-25T21:37:23.265Z,3.85
2022-07-25T21:39:50.151Z,2.33
2022-07-25T21:42:16.877Z,2.05
2022-07-25T21:44:44.235Z,3.58
2022-07-25T21:47:12.673Z,2.88
2022-07-25T21:49:59.684Z,1.30
2022-07-25T21:52:30.033Z,3.80
2022-07-25T21:55:05.326Z,3.13
2022-07-25T21:57:32.240Z,1.83
2022-07-25T21:59:59.063Z,5.07
2022-07-25T22:02:26.184Z,4.03
2022-07-25T22:04:53.022Z,4.18
2022-07-25T22:07:19.881Z,3.15
2022-07-25T22:09:46.656Z,7.03
2022-07-25T22:12:14.525Z,2.17
2022-07-25T22:14:41.335Z,1.35
2022-07-25T22:17:08.450Z,1.08
2022-07-25T22:19:35.221Z,1.00
2022-07-25T22:22:02.264Z,2.22
2022-07-25T22:24:29.053Z,0.75
2022-07-25T22:26:55.724Z,1.20
2022-07-25T22:29:22.659Z,4.47
2022-07-25T22:31:49.661Z,3.80
2022-07-25T22:34:16.657Z,3.03
2022-07-25T22:36:43.430Z,7.68
2022-07-25T22:39:11.144Z,3.75
2022-07-25T22:41:38.467Z,1.88
2022-07-25T22:44:05.514Z,3.22
2022-07-25T22:46:32.291Z,1.02
2022-07-25T22:48:59.531Z,2.42
2022-07-25T22:51:28.596Z,2.05
2022-07-25T22:53:58.797Z,2.00
2022-07-25T22:56:27.064Z,3.83
2022-07-25T22:58:54.050Z,3.13
2022-07-25T23:01:21.070Z,1.23
2022-07-25T23:03:50.179Z,1.30
2022-07-25T23:06:18.559Z,3.92
2022-07-25T23:08:45.331Z,2.10
2022-07-25T23:11:12.081Z,1.42
2022-07-25T23:13:38.830Z,4.18
2022-07-25T23:16:06.045Z,2.15
2022-07-25T23:18:37.964Z,3.47
2022-07-25T23:21:04.845Z,4.57
2022-07-25T23:23:31.575Z,2.05
2022-07-25T23:25:58.366Z,3.60
2022-07-25T23:28:24.988Z,4.25
2022-07-25T23:30:51.701Z,2.33
2022-07-25T23:33:18.421Z,3.20
2022-07-25T23:35:52.422Z,3.42
2022-07-25T23:38:19.165Z,4.13
2022-07-25T23:40:45.954Z,2.88
2022-07-25T23:43:12.624Z,3.78
2022-07-25T23:45:41.793Z,2.05
2022-07-25T23:48:11.135Z,2.47
2022-07-25T23:50:37.772Z,1.55
2022-07-25T23:53:04.448Z,3.30
2022-07-25T23:55:31.226Z,2.30
2022-07-25T23:57:57.872Z,2.33
